createdAt,value
2022-11-01T00:00:14.844Z,15.33
2022-11-01T00:03:17.119Z,15.35
2022-11-01T00:06:19.451Z,15.39
2022-11-01T00:09:21.935Z,15.48
2022-11-01T00:12:24.264Z,15.43
2022-11-01T00:15:26.539Z,15.49
2022-11-01T00:18:28.865Z,15.42
2022-11-01T00:21:31.182Z,15.41
2022-11-01T00:24:33.588Z,15.36
2022-11-01T00:27:35.872Z,15.37
2022-11-01T00:30:39.523Z,15.31
2022-11-01T00:33:41.916Z,15.52
2022-11-01T00:36:44.252Z,15.57
2022-11-01T00:39:46.527Z,15.53
2022-11-01T00:42:48.887Z,15.32
2022-11-01T00:45:54.273Z,15.35
2022-11-01T00:48:56.921Z,15.40
2022-11-01T00:51:59.566Z,15.39
2022-11-01T00:55:01.855Z,15.32
2022-11-01T00:58:04.386Z,15.23
2022-11-01T01:01:07.021Z,15.20
2022-11-01T01:04:09.450Z,15.44
2022-11-01T01:07:11.770Z,15.41
2022-11-01T01:10:14.781Z,15.32
2022-11-01T01:13:17.311Z,15.21
2022-11-01T01:16:19.617Z,15.21
2022-11-01T01:19:21.905Z,15.18
2022-11-01T01:22:24.252Z,15.18
2022-11-01T01:25:26.688Z,15.27
2022-11-01T01:28:29.031Z,15.34
2022-11-01T01:31:31.371Z,15.60
2022-11-01T01:34:33.768Z,15.49
2022-11-01T01:37:36.058Z,15.46
2022-11-01T01:40:38.322Z,15.36
2022-11-01T01:43:44.790Z,15.42
2022-11-01T01:46:48.155Z,15.27
2022-11-01T01:53:11.213Z,15.34
2022-11-01T01:56:20.542Z,15.31
2022-11-01T01:59:22.814Z,15.31
2022-11-01T02:02:25.165Z,15.31
2022-11-01T02:05:35.494Z,15.21
2022-11-01T02:08:40.828Z,15.19
2022-11-01T02:11:43.053Z,15.09
2022-11-01T02:14:45.835Z,15.03
2022-11-01T02:18:05.069Z,14.99
2022-11-01T02:21:13.217Z,14.97
2022-11-01T02:24:30.441Z,15.06
2022-11-01T02:27:45.540Z,15.11
2022-11-01T02:31:16.311Z,15.19
2022-11-01T02:34:33.132Z,15.19
2022-11-01T02:37:43.810Z,15.21
2022-11-01T02:41:16.716Z,15.30
2022-11-01T02:44:25.798Z,15.39
2022-11-01T02:47:30.554Z,15.45
2022-11-01T02:50:53.066Z,15.16
2022-11-01T02:53:55.363Z,15.03
2022-11-01T02:57:00.782Z,15.13
2022-11-01T03:00:21.147Z,15.15
2022-11-01T03:03:26.744Z,15.14
2022-11-01T03:06:40.316Z,15.13
2022-11-01T03:09:43.272Z,15.11
2022-11-01T03:13:32.654Z,15.06
2022-11-01T03:16:42.024Z,14.96
2022-11-01T03:19:53.341Z,14.94
2022-11-01T03:22:57.963Z,14.91
2022-11-01T03:26:01.235Z,15.02
2022-11-01T03:29:07.476Z,15.06
2022-11-01T03:32:10.303Z,15.04
2022-11-01T03:35:20.245Z,15.01
2022-11-01T03:38:26.067Z,15.02
2022-11-01T03:41:30.112Z,15.07
2022-11-01T03:44:39.375Z,14.99
2022-11-01T03:47:41.885Z,15.08
2022-11-01T03:50:48.701Z,15.00
2022-11-01T03:53:50.948Z,14.85
2022-11-01T03:56:53.720Z,14.80
2022-11-01T03:59:55.977Z,14.69
2022-11-01T04:02:59.328Z,14.64
2022-11-01T04:06:01.645Z,14.57
2022-11-01T04:09:05.588Z,14.65
2022-11-01T04:12:07.899Z,14.72
2022-11-01T04:15:29.678Z,14.81
2022-11-01T04:18:50.870Z,14.83
2022-11-01T04:21:53.167Z,14.76
2022-11-01T04:24:55.485Z,14.61
2022-11-01T04:27:57.852Z,14.84
2022-11-01T04:31:00.100Z,14.78
2022-11-01T04:34:04.399Z,14.77
2022-11-01T04:37:06.498Z,14.68
2022-11-01T04:40:09.331Z,14.72
2022-11-01T04:43:12.613Z,14.73
2022-11-01T04:46:15.250Z,14.67
2022-11-01T04:49:17.558Z,14.94
2022-11-01T04:52:20.081Z,15.00
2022-11-01T04:55:22.367Z,15.00
2022-11-01T04:58:24.688Z,15.12
2022-11-01T05:01:27.040Z,14.89
2022-11-01T05:04:29.424Z,14.45
2022-11-01T05:07:31.767Z,14.53
2022-11-01T05:10:35.166Z,14.46
2022-11-01T05:13:37.370Z,14.59
2022-11-01T05:16:39.636Z,14.63
2022-11-01T05:19:41.889Z,14.52
2022-11-01T05:22:44.226Z,14.31
2022-11-01T05:25:46.475Z,14.32
2022-11-01T05:28:48.726Z,14.30
2022-11-01T05:31:50.993Z,14.14
2022-11-01T05:34:53.316Z,14.19
2022-11-01T05:37:56.018Z,14.08
2022-11-01T05:40:58.452Z,13.97
2022-11-01T05:44:00.779Z,13.98
2022-11-01T05:47:04.665Z,13.96
2022-11-01T05:50:13.985Z,13.97
2022-11-01T05:53:16.235Z,13.95
2022-11-01T05:56:19.145Z,14.04
2022-11-01T05:59:21.404Z,14.02
2022-11-01T06:02:23.936Z,13.97
2022-11-01T06:05:27.800Z,14.14
2022-11-01T06:08:31.052Z,14.10
2022-11-01T06:11:35.657Z,14.13
2022-11-01T06:14:41.459Z,14.27
2022-11-01T06:17:43.698Z,14.48
2022-11-01T06:20:45.950Z,14.64
2022-11-01T06:23:50.703Z,14.54
2022-11-01T06:26:52.933Z,14.85
2022-11-01T06:29:55.448Z,14.72
2022-11-01T06:33:01.626Z,14.63
2022-11-01T06:36:05.033Z,14.45
2022-11-01T06:39:07.398Z,14.58
2022-11-01T06:42:10.156Z,14.61
2022-11-01T06:45:12.530Z,14.35
2022-11-01T06:48:14.902Z,14.56
2022-11-01T06:51:17.143Z,14.56
2022-11-01T06:54:19.550Z,14.29
2022-11-01T06:57:21.994Z,14.36
2022-11-01T07:00:25.159Z,14.33
2022-11-01T07:03:27.436Z,14.30
2022-11-01T07:06:31.117Z,14.25
2022-11-01T07:09:35.856Z,14.20
2022-11-01T07:12:38.231Z,13.93
2022-11-01T07:15:41.279Z,13.80
2022-11-01T07:18:44.583Z,13.62
2022-11-01T07:21:46.885Z,13.65
2022-11-01T07:24:49.138Z,13.59
2022-11-01T07:27:51.430Z,13.70
2022-11-01T07:30:54.999Z,13.61
2022-11-01T07:33:57.249Z,13.68
2022-11-01T07:36:59.596Z,13.59
2022-11-01T07:40:03.364Z,13.62
2022-11-01T07:43:06.935Z,13.76
2022-11-01T07:46:09.596Z,13.67
2022-11-01T07:49:12.037Z,13.50
2022-11-01T07:52:15.327Z,13.78
2022-11-01T07:55:17.597Z,13.68
2022-11-01T07:58:19.926Z,13.81
2022-11-01T08:01:22.479Z,13.84
2022-11-01T08:04:24.910Z,13.79
2022-11-01T08:07:27.392Z,13.95
2022-11-01T08:10:30.266Z,14.05
2022-11-01T08:13:32.556Z,14.02
2022-11-01T08:16:34.950Z,13.82
2022-11-01T08:19:37.364Z,13.85
2022-11-01T08:22:43.238Z,14.02
2022-11-01T08:25:45.850Z,14.05
2022-11-01T08:28:48.144Z,13.84
2022-11-01T08:31:50.457Z,13.97
2022-11-01T08:34:52.744Z,14.08
2022-11-01T08:37:55.519Z,13.87
2022-11-01T08:40:57.780Z,13.76
2022-11-01T08:44:00.118Z,14.01
2022-11-01T08:47:02.694Z,13.91
2022-11-01T08:50:10.164Z,14.02
2022-11-01T08:53:15.073Z,14.13
2022-11-01T08:56:18.145Z,14.14
2022-11-01T08:59:20.605Z,14.24
2022-11-01T09:02:24.133Z,14.29
2022-11-01T09:05:26.637Z,14.12
2022-11-01T09:08:28.911Z,14.23
2022-11-01T09:11:31.307Z,14.37
2022-11-01T09:14:34.101Z,14.41
2022-11-01T09:17:36.810Z,14.09
2022-11-01T09:20:39.129Z,14.16
2022-11-01T09:23:41.472Z,14.22
2022-11-01T09:26:44.253Z,14.37
2022-11-01T09:29:49.415Z,14.33
2022-11-01T09:32:54.279Z,14.18
2022-11-01T09:35:59.525Z,13.89
2022-11-01T09:39:02.171Z,14.24
2022-11-01T09:42:08.570Z,14.38
2022-11-01T09:45:20.569Z,14.05
2022-11-01T09:48:24.263Z,14.19
2022-11-01T09:51:26.926Z,13.98
2022-11-01T09:54:29.797Z,14.04
2022-11-01T09:57:36.516Z,14.22
2022-11-01T10:00:43.540Z,14.18
2022-11-01T10:04:11.865Z,14.38
2022-11-01T10:07:28.906Z,14.30
2022-11-01T10:11:17.464Z,14.27
2022-11-01T10:14:28.745Z,14.34
2022-11-01T10:17:52.462Z,14.38
2022-11-01T10:20:57.311Z,14.34
2022-11-01T10:24:01.282Z,14.28
2022-11-01T10:27:10.295Z,14.48
2022-11-01T10:30:17.739Z,14.66
2022-11-01T10:33:22.746Z,14.57
2022-11-01T10:36:31.171Z,14.48
2022-11-01T10:39:54.953Z,14.53
2022-11-01T10:42:59.164Z,14.42
2022-11-01T10:46:05.114Z,14.56
2022-11-01T10:49:35.062Z,14.75
2022-11-01T10:52:50.835Z,14.66
2022-11-01T10:55:57.902Z,14.45
2022-11-01T10:59:08.411Z,14.64
2022-11-01T11:02:24.223Z,14.56
2022-11-01T11:05:29.450Z,14.65
2022-11-01T11:08:32.700Z,14.62
2022-11-01T11:11:41.697Z,15.01
2022-11-01T11:14:44.901Z,14.95
2022-11-01T11:17:52.072Z,15.32
2022-11-01T11:21:00.206Z,15.42
2022-11-01T11:24:03.670Z,15.44
2022-11-01T11:27:19.332Z,16.03
2022-11-01T11:30:28.621Z,16.49
2022-11-01T11:33:33.138Z,16.32
2022-11-01T11:36:37.166Z,16.25
2022-11-01T11:40:00.066Z,16.37
2022-11-01T11:43:31.750Z,16.33
2022-11-01T11:46:34.008Z,16.16
2022-11-01T11:49:37.612Z,15.86
2022-11-01T11:52:40.794Z,15.72
2022-11-01T11:56:06.675Z,15.49
2022-11-01T11:59:21.862Z,15.23
2022-11-01T12:02:38.445Z,15.47
2022-11-01T12:05:51.760Z,15.82
2022-11-01T12:08:55.131Z,16.02
2022-11-01T12:11:57.399Z,15.96
2022-11-01T12:15:00.665Z,15.86
2022-11-01T12:18:19.509Z,15.84
2022-11-01T12:21:31.035Z,15.72
2022-11-01T12:24:51.098Z,15.58
2022-11-01T12:28:03.396Z,15.62
2022-11-01T12:31:14.774Z,15.66
2022-11-01T12:34:27.389Z,15.78
2022-11-01T12:37:50.706Z,15.68
2022-11-01T12:40:53.666Z,15.64
2022-11-01T12:44:03.959Z,15.68
2022-11-01T12:47:24.184Z,15.62
2022-11-01T12:50:43.565Z,15.81
2022-11-01T12:54:13.370Z,15.54
2022-11-01T12:57:18.280Z,15.69
2022-11-01T13:00:21.461Z,15.59
2022-11-01T13:03:39.189Z,15.75
2022-11-01T13:06:49.387Z,15.74
2022-11-01T13:10:13.234Z,15.62
2022-11-01T13:13:27.510Z,15.44
2022-11-01T13:16:36.876Z,15.30
2022-11-01T13:20:06.670Z,15.20
2022-11-01T13:23:15.230Z,15.31
2022-11-01T13:26:25.066Z,15.25
2022-11-01T13:29:47.545Z,15.10
2022-11-01T13:32:52.622Z,14.90
2022-11-01T13:36:27.310Z,14.86
2022-11-01T13:39:38.142Z,14.84
2022-11-01T13:43:15.968Z,15.10
2022-11-01T13:46:48.968Z,15.02
2022-11-01T13:49:55.623Z,14.90
2022-11-01T13:53:05.356Z,15.03
2022-11-01T13:56:28.050Z,15.05
2022-11-01T13:59:45.045Z,14.95
2022-11-01T14:02:59.270Z,15.00
2022-11-01T14:06:11.405Z,14.98
2022-11-01T14:09:28.523Z,14.94
2022-11-01T14:12:43.441Z,14.97
2022-11-01T14:16:14.758Z,14.97
2022-11-01T14:19:21.316Z,15.04
2022-11-01T14:22:27.376Z,15.02
2022-11-01T14:25:31.379Z,15.08
2022-11-01T14:28:33.671Z,15.07
2022-11-01T14:31:40.028Z,14.88
2022-11-01T14:34:45.480Z,14.77
2022-11-01T14:37:57.220Z,14.65
2022-11-01T14:41:00.580Z,14.78
2022-11-01T14:44:12.394Z,14.81
2022-11-01T14:47:43.359Z,14.86
2022-11-01T14:50:55.123Z,15.06
2022-11-01T14:54:05.452Z,15.04
2022-11-01T14:57:25.960Z,14.72
2022-11-01T15:00:31.426Z,14.69
2022-11-01T15:03:33.797Z,14.68
2022-11-01T15:06:36.805Z,14.72
2022-11-01T15:09:40.511Z,14.75
2022-11-01T15:13:02.654Z,14.64
2022-11-01T15:16:12.046Z,14.66
2022-11-01T15:19:18.808Z,14.61
2022-11-01T15:22:25.277Z,14.64
2022-11-01T15:25:27.803Z,14.82
2022-11-01T15:28:36.619Z,14.94
2022-11-01T15:31:50.139Z,14.90
2022-11-01T15:34:54.585Z,14.73
2022-11-01T15:37:57.980Z,14.86
2022-11-01T15:41:00.389Z,14.85
2022-11-01T15:44:07.050Z,14.81
2022-11-01T15:47:17.971Z,14.76
2022-11-01T15:50:20.873Z,14.71
2022-11-01T15:53:25.711Z,14.84
2022-11-01T15:56:44.875Z,14.93
2022-11-01T15:59:52.944Z,15.13
2022-11-01T16:03:23.167Z,15.05
2022-11-01T16:06:32.636Z,15.09
2022-11-01T16:09:39.562Z,15.00
2022-11-01T16:12:45.722Z,14.84
2022-11-01T16:16:06.656Z,14.71
2022-11-01T16:19:37.107Z,14.55
2022-11-01T16:22:42.100Z,14.63
2022-11-01T16:25:47.624Z,14.65
2022-11-01T16:28:51.887Z,14.62
2022-11-01T16:32:09.989Z,14.68
2022-11-01T16:35:30.688Z,14.75
2022-11-01T16:38:36.024Z,14.71
2022-11-01T16:41:40.926Z,14.75
2022-11-01T16:44:44.679Z,14.74
2022-11-01T16:47:47.011Z,14.69
2022-11-01T16:50:49.414Z,14.73
2022-11-01T16:53:51.906Z,14.67
2022-11-01T16:56:55.557Z,14.70
2022-11-01T16:59:58.017Z,14.59
2022-11-01T17:03:02.071Z,14.67
2022-11-01T17:06:05.836Z,14.75
2022-11-01T17:09:16.382Z,14.76
2022-11-01T17:12:18.725Z,14.72
2022-11-01T17:15:21.123Z,14.82
2022-11-01T17:18:30.004Z,14.75
2022-11-01T17:21:37.538Z,14.71
2022-11-01T17:24:40.696Z,14.66
2022-11-01T17:27:43.894Z,14.78
2022-11-01T17:30:46.760Z,14.60
2022-11-01T17:33:49.153Z,14.56
2022-11-01T17:36:51.652Z,14.72
2022-11-01T17:39:53.975Z,14.68
2022-11-01T17:42:56.553Z,14.50
2022-11-01T17:45:59.882Z,14.52
2022-11-01T17:49:02.193Z,14.59
2022-11-01T17:52:04.660Z,14.55
2022-11-01T17:55:07.920Z,14.64
2022-11-01T17:58:11.179Z,14.70
2022-11-01T18:01:13.911Z,14.88
2022-11-01T18:04:16.474Z,14.73
2022-11-01T18:07:19.368Z,14.66
2022-11-01T18:10:22.989Z,14.68
2022-11-01T18:13:47.753Z,14.62
2022-11-01T18:16:51.042Z,14.73
2022-11-01T18:20:28.221Z,14.72
2022-11-01T18:23:31.135Z,14.75
2022-11-01T18:26:33.449Z,14.75
2022-11-01T18:29:40.131Z,14.75
2022-11-01T18:32:51.325Z,14.84
2022-11-01T18:35:55.061Z,14.88
2022-11-01T18:39:18.837Z,14.87
2022-11-01T18:42:21.342Z,14.84
2022-11-01T18:45:31.188Z,14.75
2022-11-01T18:48:38.240Z,14.82
2022-11-01T18:51:40.578Z,14.93
2022-11-01T18:54:53.560Z,14.95
2022-11-01T18:57:58.681Z,14.88
2022-11-01T19:01:03.476Z,14.86
2022-11-01T19:04:19.279Z,14.93
2022-11-01T19:07:25.033Z,14.78
2022-11-01T19:10:28.612Z,15.00
2022-11-01T19:13:34.158Z,15.02
2022-11-01T19:16:37.459Z,14.84
2022-11-01T19:19:42.834Z,14.97
2022-11-01T19:22:45.199Z,15.09
2022-11-01T19:25:48.086Z,15.10
2022-11-01T19:28:52.616Z,14.99
2022-11-01T19:31:58.513Z,15.01
2022-11-01T19:35:00.861Z,14.84
2022-11-01T19:38:03.416Z,14.95
2022-11-01T19:41:06.055Z,15.02
2022-11-01T19:44:13.083Z,15.04
2022-11-01T19:47:30.290Z,14.97
2022-11-01T19:50:43.410Z,15.01
2022-11-01T19:53:45.913Z,14.99
2022-11-01T19:56:48.719Z,14.96
2022-11-01T19:59:51.035Z,14.99
2022-11-01T20:02:55.741Z,14.80
2022-11-01T20:05:58.167Z,14.99
2022-11-01T20:09:11.400Z,15.10
2022-11-01T20:12:18.660Z,15.12
2022-11-01T20:15:23.900Z,15.13
2022-11-01T20:18:27.032Z,15.20
2022-11-01T20:21:29.309Z,14.97
2022-11-01T20:24:31.833Z,14.90
2022-11-01T20:27:34.186Z,14.44
2022-11-01T20:30:36.587Z,15.04
2022-11-01T20:33:39.518Z,14.94
2022-11-01T20:36:42.343Z,15.00
2022-11-01T20:39:44.839Z,14.99
2022-11-01T20:42:47.127Z,14.97
2022-11-01T20:45:50.166Z,14.95
2022-11-01T20:48:52.388Z,15.12
2022-11-01T20:51:57.754Z,15.02
2022-11-01T20:55:07.161Z,15.09
2022-11-01T20:58:10.412Z,15.15
2022-11-01T21:01:14.825Z,15.24
2022-11-01T21:04:19.316Z,15.26
2022-11-01T21:07:21.518Z,15.31
2022-11-01T21:10:28.161Z,15.11
2022-11-01T21:13:38.054Z,15.17
2022-11-01T21:16:40.329Z,15.08
2022-11-01T21:19:42.607Z,15.16
2022-11-01T21:22:44.878Z,15.07
2022-11-01T21:25:50.718Z,14.95
2022-11-01T21:28:55.705Z,14.93
2022-11-01T21:31:58.000Z,14.85
2022-11-01T21:35:00.393Z,15.07
2022-11-01T21:38:03.046Z,14.73
2022-11-01T21:41:20.279Z,14.72
2022-11-01T21:44:26.084Z,14.80
2022-11-01T21:47:30.476Z,14.90
2022-11-01T21:50:33.660Z,14.70
2022-11-01T21:53:42.777Z,14.87
2022-11-01T21:56:45.216Z,15.02
2022-11-01T21:59:47.632Z,15.06
2022-11-01T22:02:51.850Z,15.05
2022-11-01T22:05:56.148Z,14.91
2022-11-01T22:09:01.269Z,15.04
2022-11-01T22:12:04.888Z,14.76
2022-11-01T22:15:11.506Z,14.73
2022-11-01T22:18:13.853Z,14.76
2022-11-01T22:21:17.514Z,14.78
2022-11-01T22:24:19.866Z,14.80
2022-11-01T22:27:22.276Z,15.09
2022-11-01T22:30:24.544Z,15.00
2022-11-01T22:33:26.844Z,14.81
2022-11-01T22:36:30.916Z,14.64
2022-11-01T22:39:33.161Z,14.43
2022-11-01T22:42:35.635Z,14.68
2022-11-01T22:45:40.167Z,14.69
2022-11-01T22:48:43.003Z,14.80
2022-11-01T22:51:53.796Z,14.78
2022-11-01T22:55:03.129Z,14.70
2022-11-01T22:58:36.040Z,14.77
2022-11-01T23:01:38.502Z,14.79
2022-11-01T23:04:40.823Z,14.86
2022-11-01T23:07:48.721Z,14.87
2022-11-01T23:10:52.104Z,14.80
2022-11-01T23:14:13.240Z,14.98
2022-11-01T23:17:33.319Z,14.78
2022-11-01T23:20:35.685Z,14.72
2022-11-01T23:23:41.839Z,14.80
2022-11-01T23:26:44.041Z,14.77
2022-11-01T23:29:48.794Z,14.79
2022-11-01T23:32:51.128Z,14.76
2022-11-01T23:35:57.208Z,14.87
2022-11-01T23:39:02.735Z,14.90
2022-11-01T23:42:06.525Z,14.80
2022-11-01T23:45:21.395Z,14.83
2022-11-01T23:48:24.134Z,14.81
2022-11-01T23:51:26.421Z,14.96
2022-11-01T23:54:34.645Z,15.07
2022-11-01T23:57:37.212Z,14.90
